Time;durP1;ratioP1;P1;durP2;ratioP2;P2;SDS_P1;SDS_P2;PMS_P1;PMS_P2;Temp;Humidity;BMP_temperature;BMP_pressure;BME280_temperature;BME280_humidity;BME280_pressure;Samples;Min_cycle;Max_cycle;Signal;HPM_P1;HPM_P2
2022/11/03 00:01:56;;;;;;;5.20;4.23;;;11.00;93.40;;;;;;5065972;28;20652;-84
2022/11/03 00:04:22;;;;;;;6.50;4.40;;;11.00;93.30;;;;;;5068200;28;20257;-84
2022/11/03 00:06:50;;;;;;;4.50;4.10;;;11.00;92.80;;;;;;5065966;28;20188;-86
2022/11/03 00:09:17;;;;;;;6.17;4.10;;;11.00;93.00;;;;;;5069698;28;20207;-87
2022/11/03 00:11:44;;;;;;;5.33;4.50;;;11.00;92.30;;;;;;5070633;28;20652;-84
2022/11/03 00:14:11;;;;;;;6.23;4.73;;;11.00;91.70;;;;;;5079707;28;20183;-83
2022/11/03 00:16:38;;;;;;;5.90;4.20;;;10.90;91.20;;;;;;5068946;28;20620;-85
2022/11/03 00:19:04;;;;;;;5.73;4.30;;;10.70;92.70;;;;;;5070802;28;20194;-86
2022/11/03 00:21:30;;;;;;;5.30;4.80;;;10.70;92.90;;;;;;5057279;28;20191;-86
2022/11/03 00:23:56;;;;;;;5.63;4.40;;;10.70;93.20;;;;;;5065932;28;20242;-85
2022/11/03 00:26:24;;;;;;;5.23;4.63;;;10.70;93.40;;;;;;5066922;28;20594;-84
2022/11/03 00:28:52;;;;;;;6.50;4.37;;;10.70;92.80;;;;;;5072144;28;20179;-85
2022/11/03 00:31:29;;;;;;;5.47;4.53;;;10.70;93.10;;;;;;5068973;28;20245;-84
2022/11/03 00:33:55;;;;;;;5.87;4.90;;;10.80;92.90;;;;;;5067476;28;20187;-85
2022/11/03 00:36:29;;;;;;;5.30;4.80;;;10.70;92.30;;;;;;5074067;28;20198;-84
2022/11/03 00:38:55;;;;;;;5.40;4.47;;;10.80;92.10;;;;;;5066608;28;20184;-84
2022/11/03 00:41:22;;;;;;;5.80;4.63;;;10.70;92.70;;;;;;5070924;28;20242;-84
2022/11/03 00:43:48;;;;;;;5.50;4.60;;;10.70;91.50;;;;;;5069577;28;20215;-84
2022/11/03 00:46:15;;;;;;;4.93;4.43;;;10.70;91.70;;;;;;5071442;28;20193;-84
2022/11/03 00:48:41;;;;;;;5.03;4.47;;;10.60;91.20;;;;;;5070200;28;20374;-82
2022/11/03 00:51:08;;;;;;;4.93;4.53;;;10.60;91.40;;;;;;5071663;28;20230;-84
2022/11/03 00:53:50;;;;;;;4.77;4.30;;;10.60;92.30;;;;;;5047398;28;20194;-84
2022/11/03 00:56:21;;;;;;;6.00;4.73;;;10.60;91.50;;;;;;5064441;28;20191;-86
2022/11/03 00:58:49;;;;;;;4.83;4.33;;;10.60;91.30;;;;;;5062739;28;20182;-84
2022/11/03 01:01:20;;;;;;;4.50;4.10;;;10.60;91.10;;;;;;5069872;28;20244;-83
2022/11/03 01:06:50;;;;;;;7.90;4.20;;;10.50;91.60;;;;;;5061145;28;20186;-83
2022/11/03 01:09:17;;;;;;;4.97;4.47;;;10.50;91.90;;;;;;5068259;28;20206;-84
2022/11/03 01:11:52;;;;;;;5.43;4.40;;;10.50;91.50;;;;;;5068156;28;20204;-84
2022/11/03 01:14:18;;;;;;;6.10;4.37;;;10.40;89.30;;;;;;5070103;28;20176;-85
2022/11/03 01:16:44;;;;;;;4.63;4.23;;;10.30;91.40;;;;;;5055400;28;20730;-84
2022/11/03 01:19:09;;;;;;;5.97;4.33;;;10.30;92.60;;;;;;5065916;28;20192;-84
2022/11/03 01:21:35;;;;;;;6.03;4.20;;;10.30;92.00;;;;;;5065374;28;20221;-85
2022/11/03 01:24:02;;;;;;;5.37;4.60;;;10.30;92.20;;;;;;5067880;28;20201;-84
2022/11/03 01:26:28;;;;;;;4.37;4.07;;;10.30;91.80;;;;;;5075108;28;20246;-83
2022/11/03 01:28:53;;;;;;;5.53;4.70;;;10.30;92.10;;;;;;5081242;28;20205;-83
2022/11/03 01:31:22;;;;;;;5.47;4.37;;;10.30;92.20;;;;;;5074262;28;20716;-84
2022/11/03 01:33:52;;;;;;;5.10;4.57;;;10.20;91.40;;;;;;5057541;28;20567;-85
2022/11/03 01:36:19;;;;;;;4.70;4.03;;;10.20;93.00;;;;;;5062309;28;20206;-85
2022/11/03 01:38:45;;;;;;;8.37;4.93;;;10.10;92.40;;;;;;5067545;28;20196;-84
2022/11/03 01:41:18;;;;;;;4.80;4.30;;;10.10;91.60;;;;;;5074360;28;20817;-84
2022/11/03 01:43:46;;;;;;;5.03;4.40;;;10.10;93.60;;;;;;5064631;28;20241;-84
2022/11/03 01:46:24;;;;;;;5.63;5.13;;;10.10;94.30;;;;;;5064357;28;20207;-85
2022/11/03 01:49:09;;;;;;;7.00;5.00;;;10.20;94.70;;;;;;5064365;28;20217;-83
2022/11/03 01:51:36;;;;;;;4.50;4.10;;;10.30;94.80;;;;;;5045583;28;20189;-85
2022/11/03 01:54:07;;;;;;;4.87;4.37;;;10.30;94.90;;;;;;5067534;28;20272;-85
2022/11/03 01:56:37;;;;;;;5.50;4.87;;;10.30;94.70;;;;;;5064359;28;20257;-84
2022/11/03 01:59:03;;;;;;;6.23;4.50;;;10.30;94.30;;;;;;5065645;28;20184;-85
2022/11/03 02:01:30;;;;;;;6.87;5.80;;;10.10;93.60;;;;;;5088939;28;20191;-84
2022/11/03 02:04:03;;;;;;;6.27;4.93;;;10.00;94.20;;;;;;5075978;28;20236;-84
2022/11/03 02:06:30;;;;;;;8.77;4.93;;;9.90;95.30;;;;;;5071532;28;20201;-84
2022/11/03 02:09:03;;;;;;;5.10;4.43;;;9.90;96.50;;;;;;5066947;28;20196;-85
2022/11/03 02:14:15;;;;;;;5.27;4.73;;;10.00;92.60;;;;;;5066011;28;20223;-86
2022/11/03 02:16:48;;;;;;;5.67;4.63;;;9.90;92.80;;;;;;5066025;28;20190;-85
2022/11/03 02:19:30;;;;;;;5.03;4.10;;;9.90;93.60;;;;;;5072209;28;20224;-83
2022/11/03 02:22:19;;;;;;;5.53;4.07;;;10.00;93.90;;;;;;5067354;28;20215;-84
2022/11/03 02:24:52;;;;;;;4.47;4.03;;;10.00;95.30;;;;;;5074585;28;20190;-83
2022/11/03 02:27:19;;;;;;;5.37;3.77;;;10.00;96.00;;;;;;5081293;28;20188;-84
2022/11/03 02:29:45;;;;;;;4.13;3.73;;;10.00;96.40;;;;;;5072418;28;20205;-85
2022/11/03 02:32:37;;;;;;;4.90;4.40;;;10.10;96.20;;;;;;5063267;28;20184;-85
2022/11/03 02:35:21;;;;;;;4.87;4.37;;;10.00;93.00;;;;;;5067659;28;20220;-86
2022/11/03 02:37:52;;;;;;;5.23;3.80;;;9.90;94.30;;;;;;5071434;28;20200;-84
2022/11/03 02:40:26;;;;;;;4.60;4.20;;;10.00;93.70;;;;;;5068009;28;20207;-85
2022/11/03 02:42:52;;;;;;;4.20;3.80;;;10.00;92.40;;;;;;5069123;28;20202;-85
2022/11/03 02:45:21;;;;;;;4.40;4.00;;;10.00;92.00;;;;;;5064251;28;20206;-85
2022/11/03 02:47:49;;;;;;;4.20;3.83;;;10.00;92.10;;;;;;5063585;28;20191;-85
2022/11/03 02:50:15;;;;;;;4.97;3.90;;;9.90;91.40;;;;;;5072055;28;20200;-83
2022/11/03 02:52:46;;;;;;;4.33;3.93;;;9.70;91.20;;;;;;5068893;28;20616;-83
2022/11/03 02:55:11;;;;;;;4.43;4.03;;;9.70;92.90;;;;;;5067239;28;20188;-83
2022/11/03 02:57:45;;;;;;;4.93;4.10;;;9.60;92.10;;;;;;5062435;28;20206;-85
2022/11/03 03:00:11;;;;;;;4.90;4.07;;;9.60;92.40;;;;;;5063475;28;20225;-84
2022/11/03 03:02:47;;;;;;;7.43;4.20;;;9.40;93.60;;;;;;5063750;28;20270;-85
2022/11/03 03:05:16;;;;;;;6.20;3.60;;;9.40;94.50;;;;;;5063657;28;20255;-84
2022/11/03 03:07:47;;;;;;;5.23;4.53;;;9.50;94.80;;;;;;5072049;28;20180;-83
2022/11/03 03:10:25;;;;;;;5.70;4.00;;;9.60;93.60;;;;;;5063816;28;20244;-84
2022/11/03 03:12:55;;;;;;;4.53;4.10;;;9.50;93.80;;;;;;5070159;28;20659;-85
2022/11/03 03:15:31;;;;;;;3.63;3.33;;;9.50;94.30;;;;;;5063133;28;20223;-84
2022/11/03 03:18:14;;;;;;;5.23;3.80;;;9.50;94.80;;;;;;5062136;28;20192;-84
2022/11/03 03:20:58;;;;;;;4.40;4.03;;;9.40;94.00;;;;;;5060910;28;20211;-85
2022/11/03 03:23:27;;;;;;;3.90;3.50;;;9.50;94.70;;;;;;5064149;28;20208;-84
2022/11/03 03:26:09;;;;;;;4.40;4.00;;;9.60;94.70;;;;;;5055469;28;20249;-84
2022/11/03 03:28:45;;;;;;;4.43;3.50;;;9.60;93.70;;;;;;5063686;28;20245;-85
2022/11/03 03:31:13;;;;;;;3.83;3.40;;;9.60;93.40;;;;;;5065646;28;20224;-85
2022/11/03 03:33:39;;;;;;;4.00;3.60;;;9.60;92.80;;;;;;5063674;28;20190;-84
2022/11/03 03:36:12;;;;;;;4.17;3.77;;;9.50;92.40;;;;;;5064807;28;20239;-84
2022/11/03 03:38:43;;;;;;;4.10;3.60;;;9.50;92.50;;;;;;5068137;28;20236;-85
2022/11/03 03:41:12;;;;;;;4.13;3.73;;;9.50;91.90;;;;;;5052230;28;20278;-84
2022/11/03 03:43:39;;;;;;;3.90;3.60;;;9.60;92.40;;;;;;5066427;28;20202;-85
2022/11/03 03:46:08;;;;;;;3.90;3.50;;;9.50;90.50;;;;;;5068948;28;20188;-84
2022/11/03 03:48:34;;;;;;;4.17;3.70;;;9.50;92.40;;;;;;5060334;28;20404;-86
2022/11/03 03:51:01;;;;;;;3.90;3.53;;;9.50;92.20;;;;;;5070195;28;20943;-84
2022/11/03 03:53:28;;;;;;;3.47;3.23;;;9.50;92.50;;;;;;5065696;28;20213;-85
2022/11/03 03:55:56;;;;;;;3.87;3.33;;;9.50;92.40;;;;;;5057388;28;20249;-85
2022/11/03 03:58:22;;;;;;;4.37;3.97;;;9.50;92.20;;;;;;5066004;28;20192;-84
2022/11/03 04:00:48;;;;;;;5.83;3.90;;;9.50;92.40;;;;;;5074244;28;20219;-84
2022/11/03 04:03:19;;;;;;;3.63;3.20;;;9.50;91.70;;;;;;5067030;28;20282;-84
2022/11/03 04:05:46;;;;;;;3.83;3.30;;;9.50;91.60;;;;;;5066082;28;20183;-87
2022/11/03 04:08:12;;;;;;;4.03;3.63;;;9.50;92.30;;;;;;5069760;28;20602;-84
2022/11/03 04:10:38;;;;;;;4.17;3.37;;;9.40;90.50;;;;;;5066621;28;20806;-84
2022/11/03 04:23:48;;;;;;;4.47;3.73;;;9.20;93.80;;;;;;5067639;28;20207;-84
2022/11/03 04:26:16;;;;;;;4.00;3.37;;;9.20;92.00;;;;;;5067967;28;20219;-84
2022/11/03 04:28:42;;;;;;;4.50;3.80;;;9.20;92.80;;;;;;5064427;28;20210;-83
2022/11/03 04:31:12;;;;;;;4.13;3.50;;;9.10;92.90;;;;;;5072333;28;20191;-84
2022/11/03 04:33:39;;;;;;;3.60;3.30;;;9.20;93.40;;;;;;5064448;28;20194;-85
2022/11/03 04:36:14;;;;;;;3.80;3.50;;;9.20;92.40;;;;;;5064919;28;20188;-87
2022/11/03 04:38:40;;;;;;;4.63;3.67;;;9.20;92.50;;;;;;5069668;28;20651;-86
2022/11/03 04:41:16;;;;;;;6.13;3.67;;;9.20;92.60;;;;;;5068528;28;20239;-84
2022/11/03 04:43:43;;;;;;;3.50;3.20;;;9.20;91.80;;;;;;5064193;28;20287;-86
2022/11/03 04:46:15;;;;;;;6.80;3.53;;;9.20;92.90;;;;;;5064732;28;20572;-84
2022/11/03 04:48:42;;;;;;;5.87;3.97;;;9.20;92.60;;;;;;5054189;28;20251;-83
2022/11/03 04:51:15;;;;;;;6.97;3.47;;;9.10;92.70;;;;;;5070727;28;20443;-84
2022/11/03 04:53:54;;;;;;;4.83;3.83;;;9.10;91.90;;;;;;5076525;28;20222;-85
2022/11/03 04:56:23;;;;;;;3.53;3.10;;;9.10;92.70;;;;;;5078859;28;20254;-84
2022/11/03 04:58:49;;;;;;;5.77;3.40;;;9.10;92.30;;;;;;5076678;28;20320;-85
2022/11/03 05:01:19;;;;;;;3.67;3.20;;;9.00;92.40;;;;;;5072165;28;20227;-83
2022/11/03 05:03:48;;;;;;;4.10;3.67;;;9.10;93.70;;;;;;5051298;28;20200;-84
2022/11/03 05:06:26;;;;;;;4.60;4.07;;;9.20;93.20;;;;;;5069774;28;20671;-85
2022/11/03 05:09:01;;;;;;;4.43;3.50;;;9.10;93.20;;;;;;5062488;28;20184;-84
2022/11/03 05:11:34;;;;;;;3.47;3.17;;;9.00;91.50;;;;;;5063357;28;20327;-84
2022/11/03 05:14:18;;;;;;;4.60;3.60;;;8.90;90.00;;;;;;5063433;28;20188;-85
2022/11/03 05:16:44;;;;;;;6.43;3.70;;;8.80;92.90;;;;;;5066442;28;20183;-84
2022/11/03 05:19:27;;;;;;;4.20;3.53;;;8.80;92.90;;;;;;5063465;28;20196;-84
2022/11/03 05:21:55;;;;;;;13.30;10.00;;;8.80;93.60;;;;;;5063719;28;20187;-84
2022/11/03 05:24:24;;;;;;;18.90;17.00;;;8.80;93.10;;;;;;5072230;28;20212;-84
2022/11/03 05:26:51;;;;;;;6.73;6.13;;;8.90;93.50;;;;;;5066467;28;20195;-83
2022/11/03 05:29:35;;;;;;;8.13;7.33;;;8.90;93.60;;;;;;5069082;28;20675;-85
2022/11/03 05:32:00;;;;;;;5.27;4.70;;;8.80;91.10;;;;;;5065235;28;20570;-83
2022/11/03 05:34:29;;;;;;;10.10;4.90;;;8.70;93.30;;;;;;5064048;28;20201;-84
2022/11/03 05:36:58;;;;;;;5.70;5.00;;;8.70;95.90;;;;;;5062381;28;20197;-84
2022/11/03 05:39:36;;;;;;;6.10;5.00;;;8.70;96.20;;;;;;5067292;28;20238;-83
2022/11/03 05:42:32;;;;;;;6.43;4.90;;;8.70;97.70;;;;;;5067118;28;20220;-84
2022/11/03 05:45:01;;;;;;;5.20;4.70;;;8.80;97.10;;;;;;5043872;28;20211;-84
2022/11/03 05:47:39;;;;;;;6.40;5.17;;;8.90;97.40;;;;;;5066063;28;20184;-83
2022/11/03 05:50:32;;;;;;;5.63;4.40;;;8.90;97.70;;;;;;5065249;28;20196;-83
2022/11/03 05:53:20;;;;;;;5.00;4.60;;;8.90;98.20;;;;;;5065604;28;20184;-82
2022/11/03 05:55:46;;;;;;;4.90;4.40;;;8.90;98.30;;;;;;5071214;28;20179;-83
2022/11/03 05:58:35;;;;;;;11.87;6.50;;;8.90;98.50;;;;;;5069441;28;20777;-84
2022/11/03 06:01:09;;;;;;;9.53;6.03;;;8.80;97.10;;;;;;5063912;28;20248;-85
2022/11/03 06:03:35;;;;;;;8.93;6.10;;;8.80;98.10;;;;;;5064563;28;20226;-85
2022/11/03 06:06:01;;;;;;;7.37;6.60;;;8.90;98.20;;;;;;5059804;28;20215;-84
2022/11/03 06:08:34;;;;;;;7.60;6.97;;;9.00;97.80;;;;;;5062774;28;20198;-83
2022/11/03 06:11:01;;;;;;;7.53;6.83;;;9.00;97.00;;;;;;5062842;28;20340;-86
2022/11/03 06:13:44;;;;;;;6.60;6.00;;;9.00;96.80;;;;;;5061853;28;20250;-85
2022/11/03 06:16:40;;;;;;;6.20;5.60;;;9.00;96.00;;;;;;5042257;28;20200;-84
2022/11/03 06:19:23;;;;;;;5.37;4.87;;;9.00;95.10;;;;;;5041674;28;20312;-84
2022/11/03 06:21:51;;;;;;;6.87;6.23;;;9.00;96.00;;;;;;5044253;28;20198;-83
2022/11/03 06:24:20;;;;;;;7.40;6.70;;;8.90;96.40;;;;;;5061377;28;20717;-85
2022/11/03 06:26:48;;;;;;;7.07;6.37;;;8.90;97.00;;;;;;5045192;28;20192;-86
2022/11/03 06:29:17;;;;;;;6.70;6.10;;;9.00;98.20;;;;;;5061190;28;20292;-84
2022/11/03 06:31:45;;;;;;;5.80;5.30;;;9.00;96.90;;;;;;5044478;28;20278;-86
2022/11/03 06:34:32;;;;;;;6.10;5.57;;;9.00;96.40;;;;;;5064942;28;20198;-85
2022/11/03 06:37:09;;;;;;;6.23;5.53;;;9.00;96.30;;;;;;5044326;28;20262;-86
2022/11/03 06:39:35;;;;;;;6.10;5.50;;;9.10;96.30;;;;;;5061004;28;20210;-84
2022/11/03 06:42:12;;;;;;;7.40;6.63;;;9.00;96.60;;;;;;5061048;28;20195;-84
2022/11/03 06:44:46;;;;;;;9.93;9.00;;;9.10;97.70;;;;;;5044347;28;20227;-86
2022/11/03 06:47:23;;;;;;;7.50;6.27;;;9.00;97.50;;;;;;5062247;28;20586;-85
2022/11/03 06:49:57;;;;;;;6.00;5.50;;;9.00;98.20;;;;;;5060992;28;20591;-84
2022/11/03 06:52:27;;;;;;;6.10;5.50;;;9.00;99.70;;;;;;5060078;28;20199;-84
2022/11/03 06:55:26;;;;;;;6.00;5.40;;;9.00;99.40;;;;;;5060240;28;20201;-83
2022/11/03 06:58:16;;;;;;;5.80;5.27;;;9.10;98.80;;;;;;5060738;28;20196;-86
2022/11/03 07:00:42;;;;;;;6.27;4.60;;;9.10;98.00;;;;;;5059765;28;20238;-83
2022/11/03 07:03:24;;;;;;;5.10;4.70;;;9.00;97.50;;;;;;5062442;28;20198;-84
2022/11/03 07:05:49;;;;;;;6.53;5.30;;;9.00;97.80;;;;;;5068152;28;20183;-85
2022/11/03 07:08:35;;;;;;;5.43;4.93;;;9.00;98.70;;;;;;5075409;28;20304;-84
2022/11/03 07:11:20;;;;;;;8.43;5.57;;;9.10;99.30;;;;;;5048482;28;20220;-85
2022/11/03 07:13:52;;;;;;;5.50;5.00;;;9.20;99.30;;;;;;5077987;28;20205;-84
2022/11/03 07:16:26;;;;;;;6.03;5.53;;;9.20;98.80;;;;;;5069226;28;20202;-84
2022/11/03 07:18:52;;;;;;;7.47;5.03;;;9.20;98.80;;;;;;5067710;28;20194;-84
2022/11/03 07:21:51;;;;;;;5.63;5.13;;;9.30;98.80;;;;;;5064057;28;20699;-83
2022/11/03 07:24:20;;;;;;;5.67;5.17;;;9.40;98.20;;;;;;5076069;28;20863;-84
2022/11/03 07:26:46;;;;;;;5.70;4.73;;;9.50;98.20;;;;;;5066120;28;21170;-84
2022/11/03 07:29:19;;;;;;;9.97;5.40;;;9.50;98.20;;;;;;5068992;28;20192;-86
2022/11/03 07:31:45;;;;;;;5.67;5.17;;;9.60;97.80;;;;;;5069333;28;20274;-86
2022/11/03 07:34:14;;;;;;;5.73;5.23;;;9.60;97.20;;;;;;5069192;28;20190;-85
2022/11/03 07:36:41;;;;;;;7.97;5.13;;;9.60;97.50;;;;;;5065626;28;20194;-84
2022/11/03 07:39:12;;;;;;;6.00;5.10;;;9.60;98.20;;;;;;5063146;28;20184;-86
2022/11/03 07:41:38;;;;;;;6.60;5.73;;;9.70;98.20;;;;;;5064761;28;20654;-84
2022/11/03 07:44:09;;;;;;;6.47;5.63;;;9.80;98.10;;;;;;5068979;28;20209;-84
2022/11/03 07:46:35;;;;;;;7.07;5.40;;;9.90;97.80;;;;;;5064433;28;20177;-84
2022/11/03 07:49:02;;;;;;;5.13;4.63;;;9.90;98.30;;;;;;5045536;28;20191;-84
2022/11/03 07:51:33;;;;;;;4.83;4.40;;;9.70;98.30;;;;;;5062754;28;20181;-85
2022/11/03 07:54:08;;;;;;;6.13;5.63;;;9.60;99.40;;;;;;5065670;28;20207;-84
2022/11/03 07:56:41;;;;;;;6.17;5.57;;;9.60;99.90;;;;;;5067713;28;20276;-81
2022/11/03 07:59:15;;;;;;;5.37;4.97;;;9.60;99.90;;;;;;5067413;28;20213;-84
2022/11/03 08:01:49;;;;;;;5.00;4.60;;;9.60;99.90;;;;;;5064495;28;20287;-84
2022/11/03 08:04:25;;;;;;;4.37;4.07;;;9.50;99.90;;;;;;5068793;28;20207;-84
2022/11/03 08:06:51;;;;;;;4.53;4.13;;;9.60;99.90;;;;;;5065977;28;20862;-85
2022/11/03 08:09:18;;;;;;;4.60;4.20;;;9.60;99.90;;;;;;5065764;28;20210;-85
2022/11/03 08:11:44;;;;;;;6.37;4.90;;;9.60;99.90;;;;;;5062933;28;20192;-84
2022/11/03 08:14:10;;;;;;;4.70;4.20;;;9.70;99.90;;;;;;5054561;28;20246;-85
2022/11/03 08:16:36;;;;;;;4.87;4.47;;;9.80;99.90;;;;;;5062364;28;20269;-84
2022/11/03 08:19:02;;;;;;;5.17;4.70;;;9.80;99.90;;;;;;5065908;28;20215;-84
2022/11/03 08:21:28;;;;;;;4.90;4.50;;;9.80;99.90;;;;;;5067301;28;20221;-84
2022/11/03 08:23:53;;;;;;;4.90;4.40;;;9.80;99.90;;;;;;5066604;28;20271;-83
2022/11/03 08:26:19;;;;;;;4.40;4.00;;;10.00;99.90;;;;;;5068207;28;20179;-83
2022/11/03 08:28:45;;;;;;;4.37;4.07;;;10.10;99.90;;;;;;5078252;28;20190;-86
2022/11/03 08:31:10;;;;;;;4.87;4.00;;;10.10;99.90;;;;;;5079698;28;20217;-84
2022/11/03 08:33:36;;;;;;;4.80;4.40;;;10.30;99.90;;;;;;5071243;28;20187;-85
2022/11/03 08:36:03;;;;;;;4.57;4.17;;;10.20;99.90;;;;;;5064262;28;20197;-85
2022/11/03 08:38:28;;;;;;;5.30;4.63;;;9.90;99.90;;;;;;5072821;28;20300;-83
2022/11/03 08:40:55;;;;;;;5.03;4.63;;;9.90;99.90;;;;;;5072535;28;20257;-84
2022/11/03 08:43:21;;;;;;;5.13;4.50;;;10.10;99.90;;;;;;5071783;28;20212;-84
2022/11/03 08:45:52;;;;;;;4.70;4.30;;;10.30;99.90;;;;;;5068756;28;20183;-84
2022/11/03 08:48:21;;;;;;;7.87;5.60;;;10.60;99.90;;;;;;5066415;28;20187;-85
2022/11/03 08:50:49;;;;;;;7.77;5.73;;;10.60;99.90;;;;;;5066197;28;20207;-84
2022/11/03 08:53:15;;;;;;;5.17;4.67;;;10.50;99.90;;;;;;5066803;28;20217;-84
2022/11/03 08:55:41;;;;;;;6.80;5.70;;;10.60;99.90;;;;;;5065755;28;20791;-84
2022/11/03 08:58:06;;;;;;;6.70;6.10;;;10.70;99.90;;;;;;5050402;28;20199;-85
2022/11/03 09:00:32;;;;;;;6.07;5.47;;;10.70;99.90;;;;;;5061247;28;20265;-85
2022/11/03 09:02:58;;;;;;;7.93;5.63;;;10.60;99.90;;;;;;5048683;28;20386;-83
2022/11/03 09:05:23;;;;;;;6.30;5.30;;;10.50;99.90;;;;;;5068714;28;20188;-83
2022/11/03 09:07:49;;;;;;;11.67;6.00;;;10.40;99.90;;;;;;5058480;28;20262;-84
2022/11/03 09:10:14;;;;;;;8.47;5.37;;;10.70;99.90;;;;;;5065712;28;20237;-85
2022/11/03 09:12:40;;;;;;;5.97;5.37;;;10.90;99.90;;;;;;5072134;28;20283;-83
2022/11/03 09:15:06;;;;;;;7.73;5.90;;;11.10;99.90;;;;;;5061891;28;20183;-84
2022/11/03 09:17:32;;;;;;;6.20;5.67;;;11.00;99.90;;;;;;5064366;28;20181;-84
2022/11/03 09:19:57;;;;;;;7.07;5.60;;;10.70;99.90;;;;;;5054240;28;20282;-84
2022/11/03 09:22:23;;;;;;;6.67;5.90;;;10.90;99.90;;;;;;5060670;28;20275;-84
2022/11/03 09:24:48;;;;;;;8.03;6.20;;;10.90;99.90;;;;;;5066885;28;20223;-86
2022/11/03 09:27:14;;;;;;;6.50;5.90;;;11.00;99.90;;;;;;5051730;28;20184;-84
2022/11/03 09:29:40;;;;;;;6.67;5.40;;;11.20;99.90;;;;;;5066036;28;20671;-85
2022/11/03 09:32:07;;;;;;;6.50;5.63;;;11.30;99.90;;;;;;5069586;28;20287;-85
2022/11/03 09:34:32;;;;;;;6.33;5.70;;;11.30;99.90;;;;;;5061103;28;20188;-85
2022/11/03 09:36:58;;;;;;;7.43;5.50;;;11.30;99.90;;;;;;5049148;28;20195;-85
2022/11/03 09:39:23;;;;;;;7.07;5.63;;;11.20;99.90;;;;;;5070767;28;20212;-87
2022/11/03 09:41:50;;;;;;;6.93;5.57;;;11.30;99.90;;;;;;5077145;28;20200;-87
2022/11/03 09:44:16;;;;;;;5.63;5.13;;;11.40;99.90;;;;;;5063414;28;20315;-86
2022/11/03 09:46:42;;;;;;;9.00;5.93;;;11.40;99.90;;;;;;5067958;28;20222;-85
2022/11/03 09:49:11;;;;;;;7.30;5.77;;;11.50;99.90;;;;;;5068328;28;20184;-85
2022/11/03 09:51:38;;;;;;;6.53;5.73;;;11.50;99.90;;;;;;5068148;28;20184;-85
2022/11/03 09:54:04;;;;;;;8.37;6.23;;;11.80;99.90;;;;;;5066661;28;20233;-85
2022/11/03 09:56:34;;;;;;;6.97;6.00;;;11.80;99.90;;;;;;5063306;28;20272;-86
2022/11/03 09:59:00;;;;;;;6.53;5.93;;;11.70;99.90;;;;;;5066206;28;20192;-85
2022/11/03 10:01:26;;;;;;;7.43;6.20;;;11.70;99.90;;;;;;5064806;28;20695;-85
2022/11/03 10:03:57;;;;;;;9.20;5.93;;;11.80;99.90;;;;;;5066253;28;20217;-85
2022/11/03 10:06:23;;;;;;;6.50;5.87;;;11.90;99.90;;;;;;5063700;28;20184;-88
2022/11/03 10:08:49;;;;;;;6.20;5.60;;;12.00;99.90;;;;;;5051421;28;20191;-85
2022/11/03 10:11:14;;;;;;;7.00;6.03;;;12.20;99.90;;;;;;5063649;28;20222;-85
2022/11/03 10:13:53;;;;;;;6.80;6.30;;;12.30;99.90;;;;;;5068169;28;20188;-85
2022/11/03 10:16:22;;;;;;;7.17;6.27;;;12.30;98.60;;;;;;5063727;28;20232;-86
2022/11/03 10:18:48;;;;;;;6.33;5.73;;;12.40;98.80;;;;;;5068367;28;20191;-85
2022/11/03 10:21:26;;;;;;;7.03;6.43;;;12.40;99.00;;;;;;5068677;28;20612;-86
2022/11/03 10:23:52;;;;;;;6.53;6.00;;;12.50;99.10;;;;;;5065597;28;20709;-83
2022/11/03 10:26:19;;;;;;;8.33;6.37;;;12.50;99.70;;;;;;5066513;28;20184;-84
2022/11/03 10:29:04;;;;;;;6.23;5.60;;;12.60;99.10;;;;;;5064018;28;20195;-85
2022/11/03 10:31:34;;;;;;;7.23;6.07;;;12.60;99.40;;;;;;5048078;28;20292;-87
2022/11/03 10:34:00;;;;;;;8.43;6.37;;;12.70;98.70;;;;;;5058876;28;20211;-87
2022/11/03 10:36:31;;;;;;;6.03;5.53;;;12.80;98.60;;;;;;5060285;28;20199;-84
2022/11/03 10:38:57;;;;;;;6.80;6.20;;;12.90;97.10;;;;;;5070470;28;20202;-86
2022/11/03 10:41:28;;;;;;;9.70;7.03;;;12.80;98.10;;;;;;5066681;28;20192;-85
2022/11/03 10:44:18;;;;;;;7.47;6.77;;;13.00;97.30;;;;;;5065278;28;20629;-85
2022/11/03 10:47:01;;;;;;;7.93;6.57;;;12.90;97.40;;;;;;5063199;28;20282;-85
2022/11/03 10:49:29;;;;;;;7.53;6.53;;;13.10;94.80;;;;;;5061093;28;20740;-86
2022/11/03 10:52:04;;;;;;;7.63;6.70;;;13.10;95.20;;;;;;5064923;28;20188;-85
2022/11/03 10:54:30;;;;;;;7.50;6.80;;;13.10;94.40;;;;;;5069464;28;20258;-86
2022/11/03 10:56:57;;;;;;;9.83;6.83;;;12.90;95.20;;;;;;5051666;28;20220;-85
2022/11/03 10:59:31;;;;;;;9.10;6.93;;;12.80;96.30;;;;;;5068829;28;20206;-83
2022/11/03 11:01:58;;;;;;;9.20;6.53;;;12.80;95.10;;;;;;5081011;28;20616;-87
2022/11/03 11:04:23;;;;;;;8.60;6.00;;;12.80;94.30;;;;;;5075516;28;20214;-85
2022/11/03 11:06:49;;;;;;;6.80;6.17;;;12.70;94.30;;;;;;5065887;28;20201;-85
2022/11/03 11:09:25;;;;;;;6.70;6.00;;;12.60;95.20;;;;;;5076912;28;20225;-82
2022/11/03 11:12:22;;;;;;;9.97;7.30;;;12.80;93.60;;;;;;5073468;28;20185;-86
2022/11/03 11:15:32;;;;;;;9.70;5.80;;;13.00;92.70;;;;;;5069982;28;20375;-88
2022/11/03 11:17:57;;;;;;;9.63;5.93;;;13.00;92.20;;;;;;5051403;28;20214;-87
2022/11/03 11:20:37;;;;;;;8.50;6.07;;;12.90;92.40;;;;;;5063619;28;20302;-85
2022/11/03 11:23:30;;;;;;;8.70;6.00;;;13.00;93.90;;;;;;5064382;28;20204;-86
2022/11/03 11:26:07;;;;;;;7.37;5.80;;;13.20;91.00;;;;;;5070044;28;20266;-86
2022/11/03 11:28:37;;;;;;;9.63;6.20;;;13.20;90.40;;;;;;5070833;28;20187;-85
2022/11/03 11:31:29;;;;;;;8.00;5.93;;;13.40;91.20;;;;;;5072464;28;20214;-84
2022/11/03 11:34:18;;;;;;;7.97;5.50;;;13.30;90.90;;;;;;5075661;28;20179;-83
2022/11/03 11:37:04;;;;;;;7.73;5.13;;;13.10;93.00;;;;;;5064706;28;20209;-84
2022/11/03 11:39:30;;;;;;;8.23;4.80;;;13.00;92.50;;;;;;5026938;28;20277;-85
2022/11/03 11:42:08;;;;;;;8.47;5.70;;;13.10;92.10;;;;;;5063618;28;20226;-84
2022/11/03 11:44:48;;;;;;;12.70;11.20;;;12.90;93.20;;;;;;5078702;28;20231;-84
2022/11/03 11:47:26;;;;;;;6.07;5.00;;;13.00;92.40;;;;;;5072590;28;20192;-86
2022/11/03 11:50:09;;;;;;;6.47;5.30;;;12.90;93.20;;;;;;5074767;28;20216;-85
2022/11/03 11:52:40;;;;;;;7.97;4.60;;;13.20;92.10;;;;;;5070694;28;20546;-85
2022/11/03 11:55:24;;;;;;;9.50;5.70;;;13.40;92.10;;;;;;5046863;28;20308;-86
2022/11/03 11:57:50;;;;;;;8.03;5.60;;;13.30;92.50;;;;;;5075659;28;20198;-86
2022/11/03 12:00:24;;;;;;;7.40;5.80;;;13.50;90.40;;;;;;5075887;28;20223;-84
2022/11/03 12:02:51;;;;;;;9.23;5.47;;;13.60;89.80;;;;;;5085791;28;20220;-86
2022/11/03 12:05:23;;;;;;;10.27;5.50;;;13.60;89.70;;;;;;5083987;28;20202;-85
2022/11/03 12:07:49;;;;;;;7.50;5.70;;;13.70;88.80;;;;;;5078377;28;20189;-86
2022/11/03 12:10:18;;;;;;;8.73;5.80;;;13.50;89.60;;;;;;5066696;28;20740;-86
2022/11/03 12:12:44;;;;;;;11.23;5.67;;;13.60;90.40;;;;;;5069349;28;20211;-87
2022/11/03 12:15:47;;;;;;;10.60;5.90;;;13.60;90.20;;;;;;5068583;28;20816;-85
2022/11/03 12:18:36;;;;;;;7.43;5.50;;;13.50;91.60;;;;;;5064220;28;20202;-85
2022/11/03 12:21:06;;;;;;;7.07;4.93;;;13.70;90.70;;;;;;5068451;28;20204;-86
2022/11/03 12:23:36;;;;;;;8.57;5.53;;;13.80;90.10;;;;;;5080077;28;20217;-83
2022/11/03 12:26:03;;;;;;;9.63;5.20;;;13.80;90.30;;;;;;5069620;28;20247;-87
2022/11/03 12:28:34;;;;;;;5.73;4.77;;;13.90;89.70;;;;;;5076009;28;20194;-86
2022/11/03 12:31:01;;;;;;;5.87;4.67;;;13.80;89.90;;;;;;5069639;28;20205;-85
2022/11/03 12:33:27;;;;;;;5.77;4.90;;;13.80;89.90;;;;;;5071214;28;20195;-89
2022/11/03 12:35:53;;;;;;;6.67;4.90;;;13.90;91.00;;;;;;5072234;28;20183;-86
2022/11/03 12:38:19;;;;;;;5.60;4.90;;;13.90;91.20;;;;;;5060377;28;20207;-87
2022/11/03 12:40:44;;;;;;;9.67;4.67;;;14.00;90.00;;;;;;5069562;28;20216;-85
2022/11/03 12:43:10;;;;;;;7.73;5.13;;;13.90;90.80;;;;;;5072669;28;20230;-88
2022/11/03 12:45:36;;;;;;;8.13;5.10;;;13.90;91.70;;;;;;5067299;28;20223;-86
2022/11/03 12:48:01;;;;;;;6.63;4.73;;;13.90;91.90;;;;;;5059865;28;20193;-86
2022/11/03 12:50:27;;;;;;;6.07;5.10;;;13.90;91.50;;;;;;5050732;28;20208;-86
2022/11/03 12:52:52;;;;;;;8.23;5.00;;;13.80;92.00;;;;;;5051533;28;20194;-84
2022/11/03 12:55:18;;;;;;;5.87;5.00;;;13.80;92.60;;;;;;5068109;28;20190;-86
2022/11/03 12:57:45;;;;;;;8.73;5.77;;;13.80;92.80;;;;;;5066414;28;20325;-85
2022/11/03 13:00:11;;;;;;;8.23;6.60;;;13.80;91.80;;;;;;5054237;28;20226;-85
2022/11/03 13:02:37;;;;;;;9.37;6.10;;;13.70;92.40;;;;;;5068182;28;20195;-84
2022/11/03 13:05:04;;;;;;;7.50;5.60;;;13.80;92.50;;;;;;5051869;28;20641;-85
2022/11/03 13:07:30;;;;;;;6.50;5.70;;;13.70;92.80;;;;;;5068024;28;20197;-85
2022/11/03 13:09:55;;;;;;;8.37;6.20;;;13.70;92.70;;;;;;5070220;28;20258;-84
2022/11/03 13:12:30;;;;;;;10.53;6.60;;;13.60;93.20;;;;;;5070567;28;20179;-85
2022/11/03 13:15:01;;;;;;;8.60;5.87;;;13.70;91.30;;;;;;5074315;28;20195;-87
2022/11/03 13:17:27;;;;;;;10.70;5.93;;;13.80;91.50;;;;;;5071012;28;20210;-87
2022/11/03 13:19:52;;;;;;;9.93;6.13;;;13.80;91.00;;;;;;5070049;28;20211;-86
2022/11/03 13:22:18;;;;;;;7.20;5.53;;;13.80;92.10;;;;;;5071148;28;20189;-86
2022/11/03 13:24:44;;;;;;;10.40;5.70;;;13.80;92.10;;;;;;5074622;28;20199;-86
2022/11/03 13:27:10;;;;;;;9.67;6.50;;;13.80;92.20;;;;;;5080087;28;20267;-87